Time;durP1;ratioP1;P1;durP2;ratioP2;P2;SDS_P1;SDS_P2;PMS_P1;PMS_P2;Temp;Humidity;BMP_temperature;BMP_pressure;BME280_temperature;BME280_humidity;BME280_pressure;Samples;Min_cycle;Max_cycle;Signal;HPM_P1;HPM_P2
2023/01/18 00:00:41;;;;;;;18.17;8.13;;;1.50;93.00;;;;;;5030387;28;20193;-76
2023/01/18 00:03:11;;;;;;;15.27;7.63;;;1.50;92.90;;;;;;5026371;28;20188;-76
2023/01/18 00:05:39;;;;;;;13.00;7.18;;;1.50;93.00;;;;;;5031443;28;20185;-75
2023/01/18 00:08:09;;;;;;;15.88;8.10;;;1.60;93.10;;;;;;5035604;28;20212;-77
2023/01/18 00:10:35;;;;;;;16.83;7.95;;;1.60;93.10;;;;;;5028820;28;20540;-77
2023/01/18 00:13:00;;;;;;;21.13;8.00;;;1.60;93.00;;;;;;5028061;28;20259;-78
2023/01/18 00:15:26;;;;;;;17.20;9.03;;;1.70;93.10;;;;;;5030294;28;20193;-76
2023/01/18 00:17:52;;;;;;;17.70;9.37;;;1.70;93.10;;;;;;5027344;28;20703;-77
2023/01/18 00:20:21;;;;;;;18.57;8.80;;;1.70;92.90;;;;;;5022726;28;20244;-78
2023/01/18 00:22:46;;;;;;;18.40;8.70;;;1.80;92.80;;;;;;5025268;28;20648;-76
2023/01/18 00:25:12;;;;;;;20.77;9.80;;;1.80;92.70;;;;;;5028924;28;20183;-78
2023/01/18 00:27:38;;;;;;;23.30;9.63;;;1.80;92.50;;;;;;5028237;28;20224;-76
2023/01/18 00:30:05;;;;;;;21.70;11.13;;;1.80;92.60;;;;;;5025880;28;20186;-78
2023/01/18 00:32:30;;;;;;;21.00;9.55;;;1.80;92.50;;;;;;5025669;28;21164;-78
2023/01/18 00:34:56;;;;;;;20.93;10.47;;;1.80;92.50;;;;;;5024902;28;20277;-76
2023/01/18 00:37:25;;;;;;;18.33;9.47;;;1.80;92.50;;;;;;5025405;28;20221;-77
2023/01/18 00:39:51;;;;;;;21.60;10.40;;;1.90;92.40;;;;;;5026329;28;20193;-77
2023/01/18 00:45:02;;;;;;;24.35;10.65;;;1.80;92.20;;;;;;5024929;28;20478;-77
2023/01/18 00:47:28;;;;;;;21.98;11.10;;;1.70;92.30;;;;;;5024717;28;20735;-76
2023/01/18 00:49:53;;;;;;;20.30;11.13;;;1.70;92.50;;;;;;5027824;28;20276;-77
2023/01/18 00:52:19;;;;;;;26.87;12.50;;;1.80;92.60;;;;;;5022800;28;20189;-77
2023/01/18 00:54:44;;;;;;;20.23;9.80;;;1.80;92.60;;;;;;5028960;28;20203;-77
2023/01/18 00:57:10;;;;;;;19.43;10.40;;;1.80;92.60;;;;;;5023677;28;20220;-77
2023/01/18 00:59:36;;;;;;;26.30;10.77;;;1.70;92.30;;;;;;5026627;28;20189;-78
2023/01/18 01:02:01;;;;;;;22.30;11.07;;;1.70;92.50;;;;;;5013509;28;20933;-76
2023/01/18 01:07:11;;;;;;;19.08;10.15;;;1.70;92.30;;;;;;5026178;28;20215;-77
2023/01/18 01:09:37;;;;;;;22.23;11.87;;;1.70;92.30;;;;;;5022741;28;20297;-75
2023/01/18 01:26:12;;;;;;;21.98;10.32;;;1.50;92.40;;;;;;5032670;28;20207;-75
2023/01/18 01:28:43;;;;;;;20.17;10.57;;;1.30;92.40;;;;;;5024473;28;20197;-77
2023/01/18 01:31:13;;;;;;;25.52;11.93;;;1.40;92.70;;;;;;5026812;28;20185;-76
2023/01/18 01:33:39;;;;;;;25.35;11.68;;;1.50;92.80;;;;;;5031369;28;20200;-76
2023/01/18 01:36:12;;;;;;;28.10;12.05;;;1.50;92.80;;;;;;5034296;28;20179;-76
2023/01/18 01:38:40;;;;;;;25.85;12.75;;;1.60;92.90;;;;;;5025053;28;20201;-76
2023/01/18 01:41:07;;;;;;;26.88;10.93;;;1.60;92.90;;;;;;5028447;28;20177;-76
2023/01/18 01:43:43;;;;;;;31.10;14.10;;;1.60;92.70;;;;;;5033506;28;20194;-76
2023/01/18 01:46:18;;;;;;;25.35;11.45;;;1.60;92.50;;;;;;5035499;28;20186;-75
2023/01/18 01:48:45;;;;;;;22.85;10.75;;;1.70;92.50;;;;;;5032521;28;20200;-76
2023/01/18 01:51:10;;;;;;;21.10;10.73;;;1.80;92.60;;;;;;5034765;28;20211;-74
2023/01/18 01:53:36;;;;;;;27.53;12.37;;;1.80;92.50;;;;;;5034576;28;20224;-77
2023/01/18 01:56:03;;;;;;;29.70;11.38;;;1.70;92.00;;;;;;5033454;28;20423;-75
2023/01/18 01:58:30;;;;;;;20.35;9.55;;;1.60;91.80;;;;;;5031708;28;20211;-76
2023/01/18 02:00:56;;;;;;;25.80;10.63;;;1.60;91.80;;;;;;5026709;28;20177;-76
2023/01/18 02:03:24;;;;;;;23.07;10.73;;;1.50;91.60;;;;;;5028577;28;20623;-75
2023/01/18 02:05:59;;;;;;;22.25;10.68;;;1.60;91.60;;;;;;5029623;28;20416;-77
2023/01/18 02:08:26;;;;;;;20.45;10.80;;;1.50;91.70;;;;;;5030083;28;20204;-76
2023/01/18 02:10:52;;;;;;;27.30;11.73;;;1.40;91.80;;;;;;5028058;28;20268;-78
2023/01/18 02:13:21;;;;;;;26.40;11.10;;;1.40;91.90;;;;;;5028777;28;20272;-77
2023/01/18 02:16:17;;;;;;;28.85;12.30;;;1.40;92.00;;;;;;5020734;28;20189;-77
2023/01/18 02:18:58;;;;;;;21.75;9.93;;;1.40;92.10;;;;;;5028216;28;20208;-76
2023/01/18 02:21:42;;;;;;;22.50;11.38;;;1.50;92.30;;;;;;5029839;28;20628;-77
2023/01/18 02:24:37;;;;;;;24.13;10.23;;;1.50;92.30;;;;;;5024303;28;20173;-77
2023/01/18 02:27:17;;;;;;;22.00;10.07;;;1.50;92.30;;;;;;5026038;28;20599;-75
2023/01/18 02:30:11;;;;;;;27.77;11.30;;;1.60;92.30;;;;;;5026307;28;20184;-76
2023/01/18 02:32:53;;;;;;;21.90;10.65;;;1.50;92.10;;;;;;5036051;28;20200;-78
2023/01/18 02:35:49;;;;;;;24.73;11.88;;;1.50;92.00;;;;;;5030144;28;20177;-76
2023/01/18 02:38:21;;;;;;;22.40;10.07;;;1.60;92.20;;;;;;5026229;28;20213;-78
2023/01/18 02:40:52;;;;;;;21.70;10.88;;;1.50;92.30;;;;;;5020214;28;20281;-76
2023/01/18 02:48:51;;;;;;;22.48;11.07;;;1.40;92.30;;;;;;5019351;28;20224;-75
2023/01/18 02:51:17;;;;;;;21.80;9.90;;;1.30;92.20;;;;;;5029811;28;20591;-76
2023/01/18 02:53:43;;;;;;;25.60;11.97;;;1.40;92.20;;;;;;5029363;28;20219;-76
2023/01/18 02:56:16;;;;;;;24.25;12.35;;;1.40;92.30;;;;;;5020416;28;20641;-77
2023/01/18 02:58:47;;;;;;;20.90;10.80;;;1.40;92.30;;;;;;5027355;28;20221;-75
2023/01/18 03:01:16;;;;;;;22.83;11.20;;;1.30;92.30;;;;;;5027351;28;20208;-75
2023/01/18 03:03:45;;;;;;;27.23;11.93;;;1.30;92.30;;;;;;5028717;28;20242;-76
2023/01/18 03:06:10;;;;;;;24.45;11.57;;;1.40;92.30;;;;;;5029517;28;20235;-77
2023/01/18 03:08:36;;;;;;;22.13;10.40;;;1.40;92.40;;;;;;5022807;28;20292;-77
2023/01/18 03:11:08;;;;;;;23.27;10.20;;;1.40;92.40;;;;;;5028732;28;20428;-76
2023/01/18 03:13:52;;;;;;;22.70;10.18;;;1.50;92.50;;;;;;5021231;28;20435;-77
2023/01/18 03:16:21;;;;;;;26.00;11.23;;;1.40;92.30;;;;;;5028981;28;20188;-77
2023/01/18 03:22:01;;;;;;;20.42;10.75;;;1.40;92.20;;;;;;5024048;28;20246;-76
2023/01/18 03:24:29;;;;;;;23.83;10.40;;;1.40;92.30;;;;;;5030174;28;20184;-77
2023/01/18 03:35:17;;;;;;;22.85;9.85;;;1.30;92.10;;;;;;5034094;28;20283;-76
2023/01/18 03:37:44;;;;;;;24.67;11.70;;;1.30;92.10;;;;;;5029222;28;20299;-75
2023/01/18 03:40:15;;;;;;;21.65;9.93;;;1.30;92.10;;;;;;5035406;28;20185;-77
2023/01/18 03:42:55;;;;;;;22.17;9.70;;;1.30;92.10;;;;;;5028249;28;20178;-75
2023/01/18 03:45:27;;;;;;;20.20;9.77;;;1.20;92.20;;;;;;5028544;28;20280;-74
2023/01/18 03:47:53;;;;;;;23.00;10.68;;;1.20;92.10;;;;;;5025035;28;20664;-75
2023/01/18 03:50:24;;;;;;;20.33;10.20;;;1.20;92.10;;;;;;5030658;28;20247;-76
2023/01/18 03:52:56;;;;;;;19.88;9.82;;;1.30;92.30;;;;;;5024187;28;20235;-75
2023/01/18 03:55:42;;;;;;;21.13;10.15;;;1.30;92.30;;;;;;5026207;28;20575;-75
2023/01/18 03:58:14;;;;;;;19.95;10.07;;;1.20;92.10;;;;;;5027486;28;20583;-76
2023/01/18 04:00:40;;;;;;;23.58;10.05;;;1.10;92.30;;;;;;5024414;28;20181;-75
2023/01/18 04:03:06;;;;;;;23.03;10.43;;;1.10;92.40;;;;;;5030624;28;20235;-78
2023/01/18 04:05:32;;;;;;;20.73;10.60;;;1.10;92.60;;;;;;5028501;28;20230;-77
2023/01/18 04:07:58;;;;;;;26.80;11.10;;;1.00;92.60;;;;;;5031790;28;20501;-74
2023/01/18 04:10:24;;;;;;;26.93;12.30;;;1.00;92.70;;;;;;5031765;28;20201;-76
2023/01/18 04:12:49;;;;;;;31.33;12.40;;;1.00;92.90;;;;;;5032443;28;20281;-76
2023/01/18 04:15:15;;;;;;;26.97;12.33;;;1.00;93.10;;;;;;5031700;28;20189;-76
2023/01/18 04:17:40;;;;;;;28.73;12.53;;;1.00;93.00;;;;;;5031309;28;20349;-76
2023/01/18 04:20:07;;;;;;;32.67;13.43;;;1.10;93.10;;;;;;5031479;28;20189;-77
2023/01/18 04:22:32;;;;;;;26.55;12.27;;;1.10;93.20;;;;;;5034576;28;20177;-78
2023/01/18 04:24:58;;;;;;;29.50;13.10;;;1.20;93.20;;;;;;5034758;28;20188;-77
2023/01/18 04:27:26;;;;;;;26.13;12.50;;;1.30;93.20;;;;;;5034841;28;20276;-77
2023/01/18 04:29:52;;;;;;;28.70;11.88;;;1.20;93.10;;;;;;5032352;28;20602;-76
2023/01/18 04:32:17;;;;;;;32.13;13.00;;;1.30;93.10;;;;;;5032797;28;20185;-76
2023/01/18 04:34:43;;;;;;;28.60;13.50;;;1.20;92.80;;;;;;5035960;28;20182;-76
2023/01/18 04:37:08;;;;;;;29.37;12.50;;;1.20;93.00;;;;;;5029313;28;20205;-76
2023/01/18 04:39:34;;;;;;;26.17;11.40;;;1.20;93.00;;;;;;5028082;28;20283;-77
2023/01/18 04:42:00;;;;;;;29.07;12.97;;;1.20;93.10;;;;;;5029573;28;20181;-77
2023/01/18 04:44:25;;;;;;;25.00;11.50;;;1.10;93.10;;;;;;5041744;28;20227;-76
2023/01/18 04:46:51;;;;;;;28.37;12.97;;;1.10;93.20;;;;;;5040948;28;20192;-77
2023/01/18 04:49:17;;;;;;;28.13;13.27;;;1.10;93.20;;;;;;5038943;28;20205;-77
2023/01/18 04:51:44;;;;;;;26.10;12.00;;;1.00;93.20;;;;;;5027980;28;20424;-77
2023/01/18 04:54:11;;;;;;;28.17;13.48;;;1.00;93.30;;;;;;5030125;28;20474;-78
2023/01/18 04:56:37;;;;;;;24.10;12.10;;;1.00;93.40;;;;;;5027560;28;20196;-77
2023/01/18 04:59:03;;;;;;;25.70;12.10;;;1.00;93.50;;;;;;5028278;28;20212;-77
2023/01/18 05:01:28;;;;;;;29.63;13.10;;;1.00;93.50;;;;;;5030849;28;20430;-77
2023/01/18 05:03:55;;;;;;;25.53;13.23;;;1.00;93.60;;;;;;5031159;28;20207;-76
2023/01/18 05:06:22;;;;;;;23.67;13.07;;;1.00;93.50;;;;;;5025724;28;20201;-76
2023/01/18 05:08:48;;;;;;;23.73;11.98;;;1.00;93.60;;;;;;5024629;28;20200;-77
2023/01/18 05:11:16;;;;;;;27.90;13.80;;;1.00;93.70;;;;;;5031559;28;20874;-77
2023/01/18 05:13:42;;;;;;;23.50;12.35;;;1.00;93.70;;;;;;5028671;28;20181;-75
2023/01/18 05:16:16;;;;;;;23.80;11.70;;;1.00;93.60;;;;;;5031624;28;20197;-76
2023/01/18 05:18:42;;;;;;;21.13;10.50;;;1.00;93.60;;;;;;5030087;28;20730;-76
2023/01/18 05:21:08;;;;;;;22.05;10.23;;;1.00;93.60;;;;;;5029421;28;20189;-76
2023/01/18 05:23:34;;;;;;;23.07;10.40;;;1.00;93.50;;;;;;5029818;28;20181;-77
2023/01/18 05:26:00;;;;;;;20.70;10.40;;;0.90;93.00;;;;;;5031687;28;20824;-76
2023/01/18 05:28:26;;;;;;;17.00;9.07;;;0.90;93.00;;;;;;5031120;28;20217;-76
2023/01/18 05:30:54;;;;;;;20.20;9.48;;;0.80;92.90;;;;;;5029743;28;20182;-76
2023/01/18 05:33:21;;;;;;;15.77;8.55;;;0.80;92.90;;;;;;5043659;28;20195;-78
2023/01/18 05:35:51;;;;;;;14.38;8.15;;;0.80;92.70;;;;;;5035993;28;20193;-75
2023/01/18 05:38:18;;;;;;;14.50;8.27;;;0.80;92.70;;;;;;5028615;28;20750;-78
2023/01/18 05:40:44;;;;;;;18.60;10.30;;;0.90;92.60;;;;;;5034552;28;20208;-77
2023/01/18 05:43:11;;;;;;;13.85;7.30;;;0.90;92.60;;;;;;5032094;28;20184;-76
2023/01/18 05:45:37;;;;;;;13.93;7.57;;;1.00;92.60;;;;;;5027323;28;20181;-77
2023/01/18 05:48:02;;;;;;;17.50;7.80;;;1.00;92.50;;;;;;5025099;28;20235;-76
2023/01/18 05:50:28;;;;;;;19.17;8.50;;;1.00;92.40;;;;;;5023256;28;20189;-75
2023/01/18 05:52:57;;;;;;;13.77;7.63;;;0.90;92.20;;;;;;5024973;28;20180;-76
2023/01/18 05:55:23;;;;;;;18.27;7.65;;;1.00;92.30;;;;;;5033202;28;20218;-77
2023/01/18 05:57:48;;;;;;;14.07;7.60;;;0.90;92.10;;;;;;5029320;28;20217;-77
2023/01/18 06:00:14;;;;;;;11.90;7.20;;;0.80;92.10;;;;;;5040309;28;20427;-76
2023/01/18 06:02:39;;;;;;;12.30;6.70;;;0.90;92.20;;;;;;5039023;28;20189;-77
2023/01/18 06:05:05;;;;;;;10.07;6.07;;;0.90;92.20;;;;;;5037987;28;20648;-78
2023/01/18 06:07:31;;;;;;;14.50;6.67;;;1.00;92.00;;;;;;5030248;28;20228;-77
2023/01/18 06:09:57;;;;;;;12.60;7.30;;;1.00;91.80;;;;;;5041367;28;20181;-78
2023/01/18 06:12:23;;;;;;;13.48;7.28;;;1.00;91.80;;;;;;5044267;28;20177;-77
2023/01/18 06:14:49;;;;;;;14.47;7.70;;;1.10;91.80;;;;;;5040467;28;20205;-76
2023/01/18 06:17:15;;;;;;;14.10;6.90;;;1.10;92.00;;;;;;5038206;28;20209;-77
2023/01/18 06:19:40;;;;;;;11.67;7.10;;;1.10;92.00;;;;;;5038185;28;20204;-78
2023/01/18 06:22:06;;;;;;;11.97;6.63;;;1.10;91.80;;;;;;5045397;28;20192;-77
2023/01/18 06:24:32;;;;;;;11.10;6.70;;;1.10;92.00;;;;;;5045914;28;20192;-75
2023/01/18 06:26:59;;;;;;;13.50;7.50;;;1.10;92.20;;;;;;5046526;28;20260;-78
2023/01/18 06:29:25;;;;;;;15.68;8.13;;;1.10;92.40;;;;;;5030528;28;20190;-77
2023/01/18 06:31:50;;;;;;;11.48;6.60;;;1.10;92.50;;;;;;5027705;28;20185;-78
2023/01/18 06:34:16;;;;;;;13.87;7.00;;;1.00;92.60;;;;;;5031955;28;20239;-78
2023/01/18 06:36:43;;;;;;;14.88;7.05;;;1.00;92.70;;;;;;5025820;28;20589;-77
2023/01/18 06:39:09;;;;;;;14.70;7.65;;;1.00;92.80;;;;;;5027470;28;20208;-75
2023/01/18 06:41:35;;;;;;;11.67;6.20;;;1.00;92.80;;;;;;5034365;28;20173;-77
2023/01/18 06:44:01;;;;;;;14.13;6.90;;;1.00;92.80;;;;;;5030923;28;20177;-76
2023/01/18 06:46:27;;;;;;;12.60;6.07;;;1.00;92.80;;;;;;5031485;28;20200;-77
2023/01/18 06:48:52;;;;;;;13.05;6.72;;;0.90;92.80;;;;;;5020710;28;20285;-76
2023/01/18 06:51:19;;;;;;;14.10;7.20;;;0.90;92.70;;;;;;5031522;28;20657;-76
2023/01/18 06:53:44;;;;;;;15.02;7.90;;;0.90;92.80;;;;;;5033997;28;20181;-76
2023/01/18 06:56:11;;;;;;;13.80;8.03;;;0.90;92.90;;;;;;5033105;28;20212;-76
2023/01/18 06:58:37;;;;;;;11.50;6.90;;;0.90;93.00;;;;;;5030229;28;20223;-77
2023/01/18 07:01:03;;;;;;;16.53;8.20;;;0.90;93.00;;;;;;5034568;28;20234;-76
2023/01/18 07:03:30;;;;;;;12.50;7.80;;;0.90;93.10;;;;;;5037929;28;20188;-76
2023/01/18 07:05:57;;;;;;;13.75;8.15;;;0.90;93.00;;;;;;5035897;28;20438;-76
2023/01/18 07:08:23;;;;;;;16.88;7.95;;;0.90;92.90;;;;;;5034878;28;20212;-77
2023/01/18 07:10:56;;;;;;;17.70;9.02;;;1.00;92.70;;;;;;5038516;28;20181;-75
2023/01/18 07:13:22;;;;;;;17.15;9.68;;;0.90;92.30;;;;;;5031703;28;20199;-77
2023/01/18 07:15:53;;;;;;;18.63;9.30;;;0.80;92.40;;;;;;5038848;28;20484;-76
2023/01/18 07:18:19;;;;;;;10.35;6.38;;;0.80;92.50;;;;;;5034168;28;20209;-77
2023/01/18 07:20:45;;;;;;;16.97;8.63;;;0.80;92.30;;;;;;5034818;28;20181;-77
2023/01/18 07:23:10;;;;;;;19.48;8.57;;;0.80;92.20;;;;;;5037757;28;20201;-76
2023/01/18 07:25:36;;;;;;;20.13;10.60;;;0.80;92.20;;;;;;5035783;28;20227;-76
2023/01/18 07:28:03;;;;;;;18.90;10.37;;;0.80;92.20;;;;;;5044308;28;20220;-77
2023/01/18 07:30:29;;;;;;;23.00;11.75;;;0.90;92.30;;;;;;5038865;28;20245;-76
2023/01/18 07:32:54;;;;;;;16.60;9.20;;;1.00;92.40;;;;;;5040011;28;20251;-77
2023/01/18 07:35:21;;;;;;;15.80;8.93;;;1.00;92.40;;;;;;5031064;28;20200;-76
2023/01/18 07:37:51;;;;;;;16.60;9.50;;;0.90;92.10;;;;;;5025645;28;20284;-77
2023/01/18 07:40:20;;;;;;;17.55;8.93;;;1.00;92.20;;;;;;5024909;28;20693;-77
2023/01/18 07:42:46;;;;;;;24.30;10.35;;;1.00;92.20;;;;;;5031917;28;20656;-75
2023/01/18 07:45:12;;;;;;;16.65;8.80;;;0.80;91.90;;;;;;5034324;28;20185;-76
2023/01/18 07:47:39;;;;;;;20.85;9.82;;;0.80;91.80;;;;;;5024612;28;20296;-76
2023/01/18 07:50:05;;;;;;;15.57;8.23;;;0.80;91.90;;;;;;5030145;28;20186;-78
2023/01/18 07:52:31;;;;;;;17.73;9.20;;;0.90;91.90;;;;;;5035206;28;20181;-77
2023/01/18 07:54:56;;;;;;;14.57;7.77;;;0.90;91.70;;;;;;5033933;28;20921;-75
2023/01/18 07:57:22;;;;;;;20.70;10.70;;;0.70;91.30;;;;;;5027169;28;20256;-77
2023/01/18 07:59:47;;;;;;;17.23;9.30;;;0.70;91.50;;;;;;5030142;28;20193;-76
2023/01/18 08:02:13;;;;;;;18.77;9.63;;;0.80;91.60;;;;;;5031135;28;20182;-77
2023/01/18 08:04:39;;;;;;;17.20;8.60;;;0.60;91.30;;;;;;5030795;28;20185;-77
2023/01/18 08:07:05;;;;;;;15.25;8.77;;;0.70;91.40;;;;;;5028416;28;20181;-76
2023/01/18 08:09:33;;;;;;;31.33;10.80;;;0.70;91.20;;;;;;5030223;28;20664;-76
2023/01/18 08:12:00;;;;;;;15.70;9.90;;;0.70;91.20;;;;;;5034927;28;20427;-76
2023/01/18 08:14:26;;;;;;;16.50;10.27;;;0.90;91.30;;;;;;5032461;28;20207;-75
2023/01/18 08:16:52;;;;;;;20.67;11.47;;;1.00;91.40;;;;;;5029882;28;20220;-75
2023/01/18 08:19:17;;;;;;;21.17;11.83;;;1.00;91.20;;;;;;5032058;28;20829;-77
2023/01/18 08:21:44;;;;;;;21.67;11.37;;;1.00;91.10;;;;;;5033546;28;20270;-75
2023/01/18 08:24:09;;;;;;;16.63;10.60;;;1.00;91.00;;;;;;5024724;28;20648;-76
2023/01/18 08:26:35;;;;;;;20.07;10.93;;;1.00;90.80;;;;;;5029522;28;20185;-78
2023/01/18 08:29:01;;;;;;;20.77;10.03;;;1.10;90.80;;;;;;5027130;28;20215;-77
2023/01/18 08:31:26;;;;;;;20.77;10.83;;;1.10;90.30;;;;;;5033218;28;20181;-77
2023/01/18 08:33:52;;;;;;;18.57;10.20;;;1.00;89.90;;;;;;5034071;28;20185;-75
2023/01/18 08:36:21;;;;;;;19.20;10.65;;;1.00;89.90;;;;;;5030135;28;20588;-76
2023/01/18 08:38:51;;;;;;;18.73;10.90;;;1.00;89.90;;;;;;5034662;28;20300;-77
2023/01/18 08:41:19;;;;;;;21.85;11.23;;;1.10;89.90;;;;;;5034690;28;20189;-76
2023/01/18 08:43:49;;;;;;;28.40;11.63;;;1.00;89.60;;;;;;5042682;28;20177;-77
2023/01/18 08:46:15;;;;;;;37.22;15.35;;;1.00;89.60;;;;;;5037040;28;20249;-77
2023/01/18 08:48:42;;;;;;;17.20;9.45;;;1.10;90.00;;;;;;5032335;28;20201;-77
2023/01/18 08:51:08;;;;;;;17.52;9.88;;;1.10;89.90;;;;;;5040177;28;20181;-77
2023/01/18 08:53:34;;;;;;;21.85;11.23;;;1.00;89.00;;;;;;5031804;28;20667;-77
2023/01/18 08:56:04;;;;;;;19.53;9.03;;;1.10;89.30;;;;;;5031421;28;20185;-76
2023/01/18 08:58:31;;;;;;;18.48;9.45;;;1.10;89.20;;;;;;5020447;28;20926;-78
2023/01/18 09:00:57;;;;;;;19.63;9.38;;;1.10;89.60;;;;;;5031933;28;20557;-77
2023/01/18 09:03:23;;;;;;;15.53;8.30;;;1.30;89.60;;;;;;5030039;28;20190;-77
2023/01/18 09:05:49;;;;;;;19.73;8.70;;;1.20;89.00;;;;;;5021902;28;20315;-76
2023/01/18 09:08:16;;;;;;;16.20;8.70;;;1.20;88.90;;;;;;5028073;28;20222;-78
2023/01/18 09:10:42;;;;;;;16.42;9.45;;;1.30;88.90;;;;;;5031384;28;20291;-78
2023/01/18 09:13:09;;;;;;;15.02;8.80;;;1.40;88.90;;;;;;5027275;28;20178;-78
2023/01/18 09:15:35;;;;;;;14.88;8.60;;;1.40;88.70;;;;;;5029913;28;20294;-79
2023/01/18 09:18:04;;;;;;;13.55;8.10;;;1.40;88.30;;;;;;5022323;28;20221;-77
2023/01/18 09:20:32;;;;;;;16.90;8.40;;;1.40;88.60;;;;;;5024395;28;20188;-77
2023/01/18 09:22:58;;;;;;;12.88;7.07;;;1.30;88.40;;;;;;5034280;28;20181;-77
2023/01/18 09:25:23;;;;;;;15.70;8.23;;;1.20;88.40;;;;;;5032451;28;20180;-77
2023/01/18 09:27:49;;;;;;;14.73;8.10;;;1.20;88.40;;;;;;5033080;28;20209;-78
2023/01/18 09:30:15;;;;;;;12.60;7.00;;;1.10;88.40;;;;;;5034537;28;20220;-76
2023/01/18 09:32:41;;;;;;;13.67;7.03;;;1.10;88.40;;;;;;5034946;28;20193;-75
2023/01/18 09:35:07;;;;;;;11.80;6.60;;;1.00;88.30;;;;;;5034208;28;20777;-76
2023/01/18 09:37:33;;;;;;;12.63;7.28;;;0.90;88.40;;;;;;5028150;28;20218;-76
2023/01/18 09:39:59;;;;;;;14.63;8.20;;;1.00;88.40;;;;;;5027951;28;20219;-78
2023/01/18 09:42:34;;;;;;;13.68;7.88;;;1.10;88.60;;;;;;5033520;28;20276;-76
2023/01/18 09:45:00;;;;;;;16.17;8.27;;;1.10;88.90;;;;;;5030620;28;20184;-75
2023/01/18 09:47:27;;;;;;;15.07;8.35;;;1.20;88.90;;;;;;5028762;28;20286;-76
2023/01/18 09:49:58;;;;;;;12.73;7.80;;;1.10;88.40;;;;;;5029582;28;20177;-77
2023/01/18 09:52:29;;;;;;;14.75;8.00;;;1.10;88.40;;;;;;5028698;28;20193;-76
2023/01/18 09:55:06;;;;;;;11.75;7.72;;;1.00;88.40;;;;;;5031879;28;20187;-77
2023/01/18 09:57:50;;;;;;;16.75;8.10;;;1.00;88.90;;;;;;5025230;28;20223;-77
2023/01/18 10:00:29;;;;;;;13.23;7.45;;;1.00;89.20;;;;;;5028794;28;20653;-76
2023/01/18 10:03:12;;;;;;;17.48;8.70;;;1.00;89.50;;;;;;5033325;28;20273;-76
2023/01/18 10:05:46;;;;;;;17.98;8.70;;;1.00;89.60;;;;;;5028638;28;20566;-78
2023/01/18 10:08:24;;;;;;;18.90;9.25;;;1.00;89.90;;;;;;5026172;28;20213;-77
2023/01/18 10:10:56;;;;;;;17.40;8.82;;;1.10;89.70;;;;;;5030013;28;20250;-77
2023/01/18 10:13:36;;;;;;;15.18;8.38;;;1.10;89.60;;;;;;5036052;28;20204;-76
2023/01/18 10:16:03;;;;;;;18.27;8.93;;;1.10;89.90;;;;;;5037504;28;20185;-77
2023/01/18 10:18:29;;;;;;;15.90;8.10;;;1.10;89.70;;;;;;5026322;28;20217;-77
2023/01/18 10:20:59;;;;;;;15.52;8.60;;;1.20;89.70;;;;;;5040706;28;20188;-78
2023/01/18 10:23:27;;;;;;;12.88;7.07;;;1.20;89.50;;;;;;5029867;28;20240;-78
2023/01/18 10:25:54;;;;;;;17.52;7.68;;;1.30;89.20;;;;;;5028291;28;20188;-77
2023/01/18 10:28:31;;;;;;;13.00;7.68;;;1.30;88.70;;;;;;5021039;28;20206;-75
2023/01/18 10:31:16;;;;;;;14.75;6.70;;;1.30;87.80;;;;;;5029645;28;20181;-77
2023/01/18 10:33:44;;;;;;;12.10;7.90;;;1.20;87.60;;;;;;5023179;28;20431;-75
2023/01/18 10:36:18;;;;;;;15.68;8.85;;;1.10;87.60;;;;;;5028339;28;20548;-78
2023/01/18 10:38:45;;;;;;;16.92;9.52;;;1.10;88.10;;;;;;5023195;28;20286;-77
2023/01/18 10:41:27;;;;;;;24.58;11.63;;;1.20;88.60;;;;;;5031264;28;20184;-77
2023/01/18 10:43:53;;;;;;;17.52;9.30;;;1.30;89.00;;;;;;5027239;28;20185;-78
2023/01/18 10:46:19;;;;;;;21.38;10.63;;;1.30;88.90;;;;;;5031059;28;20185;-78
2023/01/18 10:48:53;;;;;;;18.10;8.60;;;1.10;88.40;;;;;;5023088;28;20231;-76
2023/01/18 10:51:35;;;;;;;16.13;8.35;;;1.20;88.70;;;;;;5027505;28;20462;-76
2023/01/18 10:54:22;;;;;;;19.65;9.10;;;1.40;88.60;;;;;;5028895;28;20284;-76
2023/01/18 10:56:48;;;;;;;17.80;9.05;;;1.60;88.70;;;;;;5024943;28;20181;-78
2023/01/18 10:59:38;;;;;;;16.67;9.35;;;1.70;88.70;;;;;;5025530;28;20216;-78
2023/01/18 11:02:11;;;;;;;21.00;9.15;;;1.60;87.70;;;;;;5023688;28;20197;-77
2023/01/18 11:04:39;;;;;;;14.43;8.27;;;1.50;86.90;;;;;;5024894;28;20193;-77
2023/01/18 11:07:04;;;;;;;15.98;9.15;;;1.40;87.00;;;;;;5027746;28;20235;-77
2023/01/18 11:09:54;;;;;;;18.20;8.00;;;1.30;87.10;;;;;;5028905;28;20260;-78
2023/01/18 11:12:43;;;;;;;18.25;8.25;;;1.20;87.10;;;;;;5029173;28;20216;-77
2023/01/18 11:15:14;;;;;;;20.08;10.13;;;1.30;88.00;;;;;;5027813;28;20238;-78
2023/01/18 11:17:43;;;;;;;23.05;7.65;;;1.40;88.60;;;;;;5025012;28;20221;-77
2023/01/18 11:20:22;;;;;;;14.40;7.93;;;1.50;88.60;;;;;;5028104;28;20170;-78
2023/01/18 11:23:14;;;;;;;17.40;8.02;;;1.40;88.10;;;;;;5031237;28;20192;-78
2023/01/18 11:25:53;;;;;;;14.20;7.97;;;1.50;88.00;;;;;;5027653;28;20205;-78
2023/01/18 11:28:38;;;;;;;14.75;7.68;;;1.50;87.30;;;;;;5041754;28;20211;-76
2023/01/18 11:31:16;;;;;;;14.73;7.45;;;1.50;87.10;;;;;;5035212;28;20181;-76
2023/01/18 11:33:50;;;;;;;15.32;7.93;;;1.60;87.30;;;;;;5031785;28;20197;-78
2023/01/18 11:36:18;;;;;;;18.15;7.50;;;1.60;87.30;;;;;;5036252;28;20182;-75
2023/01/18 11:38:44;;;;;;;13.77;7.18;;;1.70;87.10;;;;;;5035570;28;20213;-77
2023/01/18 11:41:22;;;;;;;13.40;6.70;;;1.70;86.90;;;;;;5024195;28;20636;-77
2023/01/18 11:44:07;;;;;;;15.82;8.35;;;1.50;85.90;;;;;;5028139;28;20657;-77
2023/01/18 11:46:48;;;;;;;12.00;7.15;;;1.50;86.20;;;;;;5023578;28;20174;-77
2023/01/18 11:49:41;;;;;;;14.90;7.75;;;1.40;86.50;;;;;;5018173;28;20882;-77
2023/01/18 11:52:18;;;;;;;12.07;6.53;;;1.50;86.80;;;;;;5027285;28;20585;-77
2023/01/18 11:54:52;;;;;;;11.27;5.95;;;1.50;85.90;;;;;;5022681;28;20841;-77
2023/01/18 11:57:18;;;;;;;11.13;6.78;;;1.50;86.00;;;;;;5028330;28;20277;-78
2023/01/18 11:59:45;;;;;;;11.98;6.70;;;1.50;85.90;;;;;;5028774;28;20218;-77
2023/01/18 12:02:25;;;;;;;13.23;6.90;;;1.60;85.20;;;;;;5028803;28;20183;-77
2023/01/18 12:05:24;;;;;;;14.48;6.20;;;1.70;85.50;;;;;;5028156;28;20185;-75
2023/01/18 12:08:23;;;;;;;13.95;6.57;;;1.80;85.00;;;;;;5031441;28;20197;-77
2023/01/18 12:10:51;;;;;;;13.13;6.03;;;1.80;84.30;;;;;;5026692;28;20213;-77
2023/01/18 12:13:19;;;;;;;10.98;6.20;;;1.70;83.10;;;;;;5032583;28;20189;-77
2023/01/18 12:16:03;;;;;;;13.05;6.95;;;1.60;83.10;;;;;;5032402;28;20193;-76
2023/01/18 12:18:32;;;;;;;7.93;5.30;;;1.70;83.80;;;;;;5027468;28;20243;-78
2023/01/18 12:21:05;;;;;;;12.88;6.15;;;1.70;83.80;;;;;;5027239;28;20192;-77
2023/01/18 12:23:53;;;;;;;12.52;6.38;;;1.70;83.60;;;;;;5042468;28;20197;-77
2023/01/18 12:26:44;;;;;;;17.27;6.45;;;1.70;84.10;;;;;;5023566;28;20878;-77
2023/01/18 12:29:58;;;;;;;10.25;5.97;;;1.80;84.30;;;;;;5024566;28;20336;-78
2023/01/18 12:32:48;;;;;;;10.65;6.38;;;1.80;83.70;;;;;;5000730;28;20202;-76
2023/01/18 12:35:33;;;;;;;18.50;8.32;;;1.90;83.80;;;;;;5006429;28;20189;-77
2023/01/18 12:38:06;;;;;;;11.73;6.68;;;1.90;83.40;;;;;;5000176;28;20636;-77
2023/01/18 12:41:21;;;;;;;16.67;6.10;;;1.80;82.70;;;;;;4998916;28;20231;-77
2023/01/18 12:44:24;;;;;;;13.95;6.50;;;1.80;83.00;;;;;;5005031;28;20261;-77
2023/01/18 12:47:17;;;;;;;11.43;6.03;;;1.70;82.70;;;;;;4982002;28;20194;-77
2023/01/18 12:49:48;;;;;;;10.30;5.35;;;1.80;82.40;;;;;;5006948;28;20266;-77
2023/01/18 12:52:17;;;;;;;9.48;5.30;;;1.70;81.80;;;;;;4996691;28;20216;-77
2023/01/18 12:55:02;;;;;;;12.35;5.53;;;1.70;82.20;;;;;;4998445;28;20182;-77
2023/01/18 12:57:28;;;;;;;12.45;5.35;;;1.70;82.40;;;;;;5009842;28;20308;-77
2023/01/18 13:00:05;;;;;;;14.88;6.85;;;1.80;81.90;;;;;;5012193;28;20266;-77
2023/01/18 13:02:40;;;;;;;10.40;5.80;;;1.80;81.80;;;;;;5003228;28;20285;-76
2023/01/18 13:05:19;;;;;;;9.68;5.32;;;1.80;81.50;;;;;;5010223;28;20657;-76
2023/01/18 13:07:54;;;;;;;14.88;6.93;;;1.80;81.50;;;;;;5000908;28;20213;-78
2023/01/18 13:10:23;;;;;;;9.45;5.28;;;1.80;81.70;;;;;;5030103;28;20183;-78
2023/01/18 13:12:50;;;;;;;11.95;5.68;;;2.00;82.10;;;;;;5032266;28;20185;-76
2023/01/18 13:15:30;;;;;;;12.60;5.50;;;2.20;82.10;;;;;;5025446;28;20292;-77
2023/01/18 13:18:20;;;;;;;9.07;5.00;;;2.30;81.20;;;;;;5025074;28;20205;-77
2023/01/18 13:21:12;;;;;;;9.95;5.43;;;2.30;80.00;;;;;;5021491;28;20169;-77
2023/01/18 13:23:52;;;;;;;9.70;5.38;;;2.30;80.30;;;;;;5024060;28;20234;-78
2023/01/18 13:26:24;;;;;;;14.50;6.25;;;2.30;79.70;;;;;;5031644;28;20263;-77
2023/01/18 13:29:08;;;;;;;16.60;5.25;;;2.20;79.30;;;;;;5024872;28;20525;-78
2023/01/18 13:31:35;;;;;;;14.98;6.10;;;2.20;80.00;;;;;;5021822;28;20297;-76
2023/01/18 13:34:02;;;;;;;13.85;5.70;;;2.20;79.60;;;;;;5031578;28;20189;-77
2023/01/18 13:36:40;;;;;;;12.43;5.78;;;2.10;79.90;;;;;;5031460;28;20770;-77